< < Back
Terminal Aerodrome Forecast


Current Version              Previous Versions:   1  2  3  4  5  6  7  8  9  

Terminal Aerodrome Forecast

381
FTUS44 KBMX 022320
TAFTCL
TAF
KTCL 022320Z 0300/0324 34003KT P6SM BKN200=

Latest METAR

098
SAUS70 KWBC 031000 RRI
MTRTCL
METAR KTCL 030953Z AUTO 00000KT 5SM BR CLR 24/23 A2999 RMK AO2 SLP153
T02440233


USA.gov is the U.S. government's official web portal to all federal, state and local government web resources and services.